Jay Peak, Vermont
Current Conditions -  °F | °C
As of 1:55 AM on Thursday 23 Oct 2014 (Local Time) from KEFK Reporting Station
Overcast Overcast  
Wind Chill: 37°   Ceiling: 2500
Heat Index: 44°   Visibility: 10mi
Dew Point: 36°   Wind: 15mph
Humidity: 74%   Direction: 10°N
Pressure: 30.08"   Gusts: NA
Location:  44.967°N, 72.4837°W
Report Text: KEFK 230555Z AUTO 01013KT 10SM OVC025 07/02 A3008 RMK AO2 T00670023 10090 20067
Loading
Personal Weather Stations






























Interactive Weather Map
Tropical Storm Tracking
New forecast layout! Learn more

10-Day Weather Forecast

Advertisements
Track Severe Weather on mobile